Time;durP1;ratioP1;P1;durP2;ratioP2;P2;SDS_P1;SDS_P2;PMS_P1;PMS_P2;Temp;Humidity;BMP_temperature;BMP_pressure;BME280_temperature;BME280_humidity;BME280_pressure;Samples;Min_cycle;Max_cycle;Signal;HPM_P1;HPM_P2
2022/04/09 00:00:21;;;;;;;;;;;6.20;99.90;;;;;;5014738;28;19909;-79
2022/04/09 00:02:46;;;;;;;;;;;6.30;99.90;;;;;;5014512;28;19914;-79
2022/04/09 00:05:13;;;;;;;;;;;6.30;99.90;;;;;;5014326;28;19963;-78
2022/04/09 00:07:38;;;;;;;;;;;6.30;99.90;;;;;;4996660;28;20004;-79
2022/04/09 00:10:05;;;;;;;;;;;6.20;99.90;;;;;;5014225;28;19947;-78
2022/04/09 00:12:31;;;;;;;;;;;6.30;99.90;;;;;;5014383;28;19925;-77
2022/04/09 00:14:57;;;;;;;;;;;6.30;99.90;;;;;;5013752;28;19983;-78
2022/04/09 00:17:22;;;;;;;;;;;6.20;99.90;;;;;;5014194;28;19920;-77
2022/04/09 00:19:48;;;;;;;;;;;6.20;99.90;;;;;;5014169;28;19963;-78
2022/04/09 00:22:14;;;;;;;;;;;6.30;99.90;;;;;;5014404;28;19909;-78
2022/04/09 00:24:40;;;;;;;;;;;6.20;99.90;;;;;;5014150;28;20000;-77
2022/04/09 00:27:05;;;;;;;;;;;6.10;99.90;;;;;;5014126;28;19936;-78
2022/04/09 00:29:31;;;;;;;;;;;6.10;99.90;;;;;;5014017;28;19963;-78
2022/04/09 00:31:57;;;;;;;;;;;6.00;99.90;;;;;;5014002;28;20377;-78
2022/04/09 00:34:22;;;;;;;;;;;5.90;99.90;;;;;;5013994;28;19914;-78
2022/04/09 00:36:48;;;;;;;;;;;5.80;99.90;;;;;;5013957;28;19964;-78
2022/04/09 00:39:14;;;;;;;;;;;6.00;99.90;;;;;;5013933;28;20396;-77
2022/04/09 00:41:40;;;;;;;;;;;6.10;99.90;;;;;;5013921;28;19909;-79
2022/04/09 00:44:14;;;;;;;;;;;6.00;99.90;;;;;;5012538;28;20297;-78
2022/04/09 00:46:40;;;;;;;;;;;5.90;99.90;;;;;;4995991;28;19910;-79
2022/04/09 00:49:05;;;;;;;;;;;5.90;99.90;;;;;;4996147;28;19920;-77
2022/04/09 00:51:33;;;;;;;;;;;5.80;99.90;;;;;;5013796;28;20258;-77
2022/04/09 00:53:59;;;;;;;;;;;5.90;99.90;;;;;;5014140;28;19910;-78
2022/04/09 00:56:25;;;;;;;;;;;5.80;99.90;;;;;;5013852;28;20374;-78
2022/04/09 00:58:56;;;;;;;;;;;5.80;99.90;;;;;;5013766;28;19959;-77
2022/04/09 01:01:22;;;;;;;;;;;5.70;99.90;;;;;;5014197;28;19964;-76
2022/04/09 01:03:49;;;;;;;;;;;5.60;99.90;;;;;;5013794;28;20384;-78
2022/04/09 01:06:15;;;;;;;;;;;5.40;99.90;;;;;;5013817;28;19917;-78
2022/04/09 01:08:41;;;;;;;;;;;5.40;99.90;;;;;;5013686;28;19909;-78
2022/04/09 01:11:06;;;;;;;;;;;5.40;99.90;;;;;;5013894;28;19917;-77
2022/04/09 01:13:33;;;;;;;;;;;5.40;99.90;;;;;;5013671;28;19922;-78
2022/04/09 01:15:59;;;;;;;;;;;5.40;99.90;;;;;;5013638;28;19910;-77
2022/04/09 01:18:25;;;;;;;;;;;5.40;99.90;;;;;;4995962;28;19910;-77
2022/04/09 01:20:50;;;;;;;;;;;5.40;99.90;;;;;;5013595;28;19957;-77
2022/04/09 01:23:16;;;;;;;;;;;5.40;99.90;;;;;;4995893;28;19914;-78
2022/04/09 01:25:42;;;;;;;;;;;5.40;99.90;;;;;;5013644;28;19920;-78
2022/04/09 01:28:07;;;;;;;;;;;5.40;99.90;;;;;;5017154;28;19916;-78
2022/04/09 01:30:33;;;;;;;;;;;5.30;99.90;;;;;;5017276;28;19910;-77
2022/04/09 01:32:59;;;;;;;;;;;5.30;99.90;;;;;;5017140;28;19932;-77
2022/04/09 01:35:24;;;;;;;;;;;5.20;99.90;;;;;;5017087;28;19941;-78
2022/04/09 01:37:50;;;;;;;;;;;5.30;99.90;;;;;;5017079;28;19910;-78
2022/04/09 01:40:15;;;;;;;;;;;5.30;99.90;;;;;;5016973;28;19952;-77
2022/04/09 01:42:41;;;;;;;;;;;5.50;99.90;;;;;;5017024;28;19916;-76
2022/04/09 01:45:07;;;;;;;;;;;5.60;99.90;;;;;;5016902;28;19927;-78
2022/04/09 01:47:34;;;;;;;;;;;5.50;99.90;;;;;;5016872;28;20500;-78
2022/04/09 01:49:59;;;;;;;;;;;5.60;99.90;;;;;;5017246;28;20301;-78
2022/04/09 01:52:25;;;;;;;;;;;5.70;99.90;;;;;;4999202;28;19910;-77
2022/04/09 01:54:51;;;;;;;;;;;5.80;99.90;;;;;;5016922;28;19909;-79
2022/04/09 01:57:16;;;;;;;;;;;5.80;99.90;;;;;;5016764;28;19916;-78
2022/04/09 01:59:44;;;;;;;;;;;5.80;99.90;;;;;;5016840;28;19909;-77
2022/04/09 02:02:09;;;;;;;;;;;5.90;99.90;;;;;;4999017;28;20000;-78
2022/04/09 02:04:35;;;;;;;;;;;5.80;99.90;;;;;;5016541;28;20068;-78
2022/04/09 02:07:00;;;;;;;;;;;5.70;99.90;;;;;;5016566;28;20512;-77
2022/04/09 02:09:26;;;;;;;;;;;5.60;99.90;;;;;;4998825;28;20328;-78
2022/04/09 02:11:52;;;;;;;;;;;5.50;99.90;;;;;;5016775;28;19909;-79
2022/04/09 02:14:17;;;;;;;;;;;5.40;99.90;;;;;;5015957;28;19929;-77
2022/04/09 02:16:43;;;;;;;;;;;5.50;99.90;;;;;;5016511;28;19910;-77
2022/04/09 02:19:10;;;;;;;;;;;5.60;99.90;;;;;;5016272;28;19928;-77
2022/04/09 02:21:36;;;;;;;;;;;5.70;99.90;;;;;;5016454;28;19960;-76
2022/04/09 02:24:01;;;;;;;;;;;5.60;99.90;;;;;;5016329;28;19941;-78
2022/04/09 02:26:27;;;;;;;;;;;5.60;99.90;;;;;;4998600;28;20368;-79
2022/04/09 02:28:53;;;;;;;;;;;5.70;99.90;;;;;;5016088;28;20293;-77
2022/04/09 02:31:18;;;;;;;;;;;5.80;99.90;;;;;;5016043;28;19996;-77
2022/04/09 02:33:44;;;;;;;;;;;5.80;99.90;;;;;;5016621;28;20281;-78
2022/04/09 02:36:12;;;;;;;;;;;5.60;99.90;;;;;;5014751;28;20392;-78
2022/04/09 02:38:38;;;;;;;;;;;5.70;99.90;;;;;;4997620;28;19909;-78
2022/04/09 02:41:03;;;;;;;;;;;5.60;99.90;;;;;;4998234;28;19917;-78
2022/04/09 02:43:29;;;;;;;;;;;5.60;99.90;;;;;;5016035;28;20393;-78
2022/04/09 02:45:55;;;;;;;;;;;5.50;99.90;;;;;;5015872;28;19914;-78
2022/04/09 02:48:21;;;;;;;;;;;5.50;99.90;;;;;;5015712;28;20052;-78
2022/04/09 02:50:48;;;;;;;;;;;5.40;99.90;;;;;;5015699;28;19909;-78
2022/04/09 02:53:14;;;;;;;;;;;5.50;99.90;;;;;;5015607;28;20453;-78
2022/04/09 02:55:40;;;;;;;;;;;5.50;99.90;;;;;;5015591;28;20000;-78
2022/04/09 02:58:05;;;;;;;;;;;5.40;99.90;;;;;;5015621;28;19914;-77
2022/04/09 03:00:31;;;;;;;;;;;5.50;99.90;;;;;;4997941;28;20365;-79
2022/04/09 03:02:56;;;;;;;;;;;5.40;99.90;;;;;;5015434;28;20380;-78
2022/04/09 03:05:22;;;;;;;;;;;5.40;99.90;;;;;;5015365;28;19917;-78
2022/04/09 03:07:48;;;;;;;;;;;5.20;99.90;;;;;;4997739;28;19975;-78
2022/04/09 03:10:13;;;;;;;;;;;5.10;99.90;;;;;;5015432;28;19909;-78
2022/04/09 03:12:45;;;;;;;;;;;5.20;99.90;;;;;;5015093;28;19918;-78
2022/04/09 03:15:11;;;;;;;;;;;5.10;99.90;;;;;;5015459;28;20288;-78
2022/04/09 03:17:37;;;;;;;;;;;5.30;99.90;;;;;;5015216;28;19909;-78
2022/04/09 03:20:03;;;;;;;;;;;5.30;99.90;;;;;;5015201;28;19909;-78
2022/04/09 03:22:29;;;;;;;;;;;5.30;99.90;;;;;;4997437;28;19909;-78
2022/04/09 03:24:58;;;;;;;;;;;5.20;99.90;;;;;;5014967;28;20064;-79
2022/04/09 03:27:24;;;;;;;;;;;5.00;99.90;;;;;;5015038;28;19910;-78
2022/04/09 03:29:50;;;;;;;;;;;4.70;99.90;;;;;;5014989;28;20549;-78
2022/04/09 03:32:15;;;;;;;;;;;4.60;99.90;;;;;;5014945;28;19913;-78
2022/04/09 03:34:41;;;;;;;;;;;4.40;99.90;;;;;;5015187;28;19932;-78
2022/04/09 03:37:06;;;;;;;;;;;4.50;99.90;;;;;;5015029;28;19982;-79
2022/04/09 03:39:32;;;;;;;;;;;4.70;99.90;;;;;;5014774;28;20324;-79
2022/04/09 03:41:58;;;;;;;;;;;4.50;99.90;;;;;;5014795;28;19909;-78
2022/04/09 03:44:23;;;;;;;;;;;4.70;99.90;;;;;;4997361;28;20373;-79
2022/04/09 03:46:49;;;;;;;;;;;4.90;99.90;;;;;;5014698;28;19960;-79
2022/04/09 03:49:15;;;;;;;;;;;5.00;99.90;;;;;;5014459;28;19909;-78
2022/04/09 03:51:40;;;;;;;;;;;5.00;99.90;;;;;;5013835;28;20333;-78
2022/04/09 03:54:06;;;;;;;;;;;4.90;99.90;;;;;;5014892;28;19913;-78
2022/04/09 03:56:32;;;;;;;;;;;5.00;99.90;;;;;;5014624;28;20432;-78
2022/04/09 03:58:57;;;;;;;;;;;5.00;99.90;;;;;;5014550;28;20293;-77
2022/04/09 04:01:24;;;;;;;;;;;5.00;99.90;;;;;;5014445;28;19948;-78
2022/04/09 04:03:51;;;;;;;;;;;5.10;99.90;;;;;;5014272;28;19916;-78
2022/04/09 04:06:17;;;;;;;;;;;4.90;99.90;;;;;;5014510;28;20377;-77
2022/04/09 04:08:43;;;;;;;;;;;4.80;99.90;;;;;;4996679;28;19910;-78
2022/04/09 04:11:08;;;;;;;;;;;4.70;99.90;;;;;;5014309;28;19916;-78
2022/04/09 04:13:38;;;;;;;;;;;4.60;99.90;;;;;;4996428;28;19922;-79
2022/04/09 04:16:04;;;;;;;;;;;4.70;99.90;;;;;;4996628;28;19909;-78
2022/04/09 04:18:29;;;;;;;;;;;4.80;99.90;;;;;;5014147;28;20423;-77
2022/04/09 04:20:55;;;;;;;;;;;4.90;99.90;;;;;;5014142;28;19909;-78
2022/04/09 04:23:22;;;;;;;;;;;5.00;99.90;;;;;;4996450;28;19913;-79
2022/04/09 04:25:47;;;;;;;;;;;5.10;99.90;;;;;;5014012;28;19913;-78
2022/04/09 04:28:13;;;;;;;;;;;4.90;99.90;;;;;;5014262;28;20435;-79
2022/04/09 04:30:39;;;;;;;;;;;4.70;99.90;;;;;;5014011;28;19996;-78
2022/04/09 04:33:04;;;;;;;;;;;4.60;99.90;;;;;;5013975;28;19910;-78
2022/04/09 04:35:30;;;;;;;;;;;4.60;99.90;;;;;;5013989;28;20361;-79
2022/04/09 04:37:55;;;;;;;;;;;4.50;99.90;;;;;;4996324;28;19913;-78
2022/04/09 04:40:21;;;;;;;;;;;4.40;99.90;;;;;;5014016;28;19996;-78
2022/04/09 04:42:49;;;;;;;;;;;4.40;99.90;;;;;;5013872;28;20262;-78
2022/04/09 04:45:14;;;;;;;;;;;4.30;99.90;;;;;;5013830;28;19917;-78
2022/04/09 04:47:44;;;;;;;;;;;4.30;99.90;;;;;;5014060;28;19916;-77
2022/04/09 04:50:09;;;;;;;;;;;4.20;99.90;;;;;;5013848;28;19909;-79
2022/04/09 04:52:35;;;;;;;;;;;4.30;99.90;;;;;;5013793;28;19910;-78
2022/04/09 04:55:00;;;;;;;;;;;4.30;99.90;;;;;;5013767;28;19917;-78
2022/04/09 04:57:26;;;;;;;;;;;4.30;99.90;;;;;;5014215;28;19913;-78
2022/04/09 04:59:52;;;;;;;;;;;4.30;99.90;;;;;;5014091;28;19909;-78
2022/04/09 05:02:17;;;;;;;;;;;4.10;99.90;;;;;;5015784;28;19909;-78
2022/04/09 05:04:43;;;;;;;;;;;4.20;99.90;;;;;;5017660;28;19964;-78
2022/04/09 05:07:08;;;;;;;;;;;4.10;99.90;;;;;;5018141;28;19917;-78
2022/04/09 05:09:35;;;;;;;;;;;4.20;99.90;;;;;;5017548;28;20346;-78
2022/04/09 05:12:00;;;;;;;;;;;4.20;99.90;;;;;;5017581;28;19909;-77
2022/04/09 05:14:26;;;;;;;;;;;4.10;99.90;;;;;;5017133;28;20008;-78
2022/04/09 05:16:52;;;;;;;;;;;4.00;99.90;;;;;;4999786;28;19910;-77
2022/04/09 05:19:17;;;;;;;;;;;4.00;99.90;;;;;;4999796;28;19910;-78
2022/04/09 05:21:45;;;;;;;;;;;4.20;99.90;;;;;;5017557;28;20400;-78
2022/04/09 05:24:11;;;;;;;;;;;4.20;99.90;;;;;;5017552;28;19909;-78
2022/04/09 05:26:36;;;;;;;;;;;4.20;99.90;;;;;;5017305;28;20342;-78
2022/04/09 05:29:02;;;;;;;;;;;4.00;99.90;;;;;;5017296;28;19909;-79
2022/04/09 05:31:28;;;;;;;;;;;4.10;99.90;;;;;;5017185;28;19910;-79
2022/04/09 05:33:54;;;;;;;;;;;4.00;99.90;;;;;;5017297;28;19910;-78
2022/04/09 05:36:20;;;;;;;;;;;3.90;99.90;;;;;;4999462;28;19917;-79
2022/04/09 05:38:45;;;;;;;;;;;4.00;99.90;;;;;;5017057;28;19917;-78
2022/04/09 05:41:11;;;;;;;;;;;3.80;99.90;;;;;;5016960;28;20000;-78
2022/04/09 05:43:36;;;;;;;;;;;3.90;99.90;;;;;;5017296;28;20285;-78
2022/04/09 05:46:02;;;;;;;;;;;3.80;99.90;;;;;;5016865;28;20055;-78
2022/04/09 05:48:27;;;;;;;;;;;3.80;99.90;;;;;;5016819;28;19909;-78
2022/04/09 05:50:53;;;;;;;;;;;3.90;99.90;;;;;;4999223;28;19925;-79
2022/04/09 05:53:19;;;;;;;;;;;4.20;99.90;;;;;;5016839;28;19917;-79
2022/04/09 05:55:44;;;;;;;;;;;4.30;99.90;;;;;;5017070;28;20374;-78
2022/04/09 05:58:11;;;;;;;;;;;4.40;99.90;;;;;;5016965;28;19915;-78
2022/04/09 06:00:36;;;;;;;;;;;4.50;99.90;;;;;;5016747;28;19913;-78
2022/04/09 06:03:03;;;;;;;;;;;4.50;99.90;;;;;;4998915;28;19910;-78
2022/04/09 06:05:28;;;;;;;;;;;4.60;99.90;;;;;;5016918;28;20293;-78
2022/04/09 06:07:54;;;;;;;;;;;4.50;99.90;;;;;;4998906;28;19916;-78
2022/04/09 06:10:20;;;;;;;;;;;4.60;99.90;;;;;;5016395;28;20341;-78
2022/04/09 06:12:45;;;;;;;;;;;4.60;99.90;;;;;;5015650;28;19924;-77
2022/04/09 06:15:11;;;;;;;;;;;4.60;99.90;;;;;;5016052;28;20008;-78
2022/04/09 06:17:37;;;;;;;;;;;4.60;99.90;;;;;;4998717;28;19913;-78
2022/04/09 06:20:04;;;;;;;;;;;4.70;99.90;;;;;;5016475;28;20004;-79
2022/04/09 06:22:30;;;;;;;;;;;5.00;99.90;;;;;;5016454;28;19917;-78
2022/04/09 06:24:55;;;;;;;;;;;5.40;99.90;;;;;;5016388;28;19913;-78
2022/04/09 06:27:21;;;;;;;;;;;5.90;99.90;;;;;;5016079;28;20001;-78
2022/04/09 06:29:46;;;;;;;;;;;6.40;99.90;;;;;;5016158;28;19910;-78
2022/04/09 06:32:12;;;;;;;;;;;6.50;99.90;;;;;;5016321;28;19980;-78
2022/04/09 06:34:38;;;;;;;;;;;6.70;99.90;;;;;;4998367;28;19997;-78
2022/04/09 06:37:04;;;;;;;;;;;6.80;99.90;;;;;;4998343;28;19909;-78
2022/04/09 06:39:29;;;;;;;;;;;7.40;99.90;;;;;;5015911;28;19916;-79
2022/04/09 06:41:55;;;;;;;;;;;7.80;99.90;;;;;;5016377;28;19916;-79
2022/04/09 06:44:20;;;;;;;;;;;7.50;99.90;;;;;;5015828;28;19920;-79
2022/04/09 06:46:46;;;;;;;;;;;7.40;99.90;;;;;;5015956;28;19967;-79
2022/04/09 06:49:13;;;;;;;;;;;7.70;99.90;;;;;;5015765;28;19955;-79
2022/04/09 06:51:39;;;;;;;;;;;8.50;99.90;;;;;;5015931;28;19917;-79
2022/04/09 06:54:04;;;;;;;;;;;8.60;99.90;;;;;;5016035;28;19995;-78
2022/04/09 06:56:30;;;;;;;;;;;8.70;99.90;;;;;;4998033;28;19952;-78
2022/04/09 06:58:55;;;;;;;;;;;8.70;99.90;;;;;;5015544;28;20373;-79
2022/04/09 07:01:21;;;;;;;;;;;8.90;99.90;;;;;;4997901;28;19925;-79
2022/04/09 07:03:47;;;;;;;;;;;9.10;99.90;;;;;;5015665;28;19909;-78
2022/04/09 07:06:14;;;;;;;;;;;9.50;99.90;;;;;;5015499;28;19913;-79
2022/04/09 07:08:40;;;;;;;;;;;10.40;99.90;;;;;;5015534;28;19932;-80
2022/04/09 07:11:05;;;;;;;;;;;10.60;99.90;;;;;;4997652;28;20417;-79
2022/04/09 07:13:31;;;;;;;;;;;10.70;99.90;;;;;;5015213;28;19921;-79
2022/04/09 07:15:57;;;;;;;;;;;11.30;99.90;;;;;;5015539;28;19921;-79
2022/04/09 07:18:23;;;;;;;;;;;11.60;99.90;;;;;;5015308;28;19963;-79
2022/04/09 07:20:48;;;;;;;;;;;11.90;99.90;;;;;;5015173;28;19962;-79
2022/04/09 07:23:14;;;;;;;;;;;11.20;99.90;;;;;;4997435;28;19909;-79
2022/04/09 07:25:42;;;;;;;;;;;11.80;99.90;;;;;;5014783;28;19914;-79
2022/04/09 07:28:08;;;;;;;;;;;11.80;99.90;;;;;;5014973;28;19916;-79
2022/04/09 07:30:33;;;;;;;;;;;12.20;99.90;;;;;;5014903;28;19910;-79
2022/04/09 07:32:59;;;;;;;;;;;12.90;99.90;;;;;;5014979;28;20293;-79
2022/04/09 07:35:25;;;;;;;;;;;13.70;99.90;;;;;;5014904;28;19916;-79
2022/04/09 07:37:54;;;;;;;;;;;14.60;99.90;;;;;;5014951;28;19949;-79
2022/04/09 07:40:20;;;;;;;;;;;14.10;99.90;;;;;;5014819;28;19964;-79
2022/04/09 07:42:47;;;;;;;;;;;13.50;99.90;;;;;;5014729;28;19952;-80
2022/04/09 07:45:17;;;;;;;;;;;14.00;99.90;;;;;;5014935;28;19920;-80
2022/04/09 07:47:43;;;;;;;;;;;13.60;99.90;;;;;;5014669;28;20009;-79
2022/04/09 07:50:10;;;;;;;;;;;13.70;99.90;;;;;;5014661;28;20008;-79
2022/04/09 07:52:37;;;;;;;;;;;14.50;99.90;;;;;;5014994;28;19913;-79
2022/04/09 07:55:03;;;;;;;;;;;15.10;99.90;;;;;;5014826;28;20289;-78
2022/04/09 07:57:29;;;;;;;;;;;15.30;99.90;;;;;;5014498;28;19917;-79
2022/04/09 07:59:58;;;;;;;;;;;15.80;99.90;;;;;;4996940;28;19909;-79
2022/04/09 08:02:24;;;;;;;;;;;16.10;99.90;;;;;;4996823;28;19917;-80
2022/04/09 08:04:50;;;;;;;;;;;16.30;99.90;;;;;;5014558;28;19913;-80
2022/04/09 08:07:15;;;;;;;;;;;16.60;99.60;;;;;;5014948;28;19917;-80
2022/04/09 08:09:43;;;;;;;;;;;17.10;98.40;;;;;;5014203;28;19920;-80
2022/04/09 08:12:11;;;;;;;;;;;17.20;97.60;;;;;;5014624;28;19916;-80
2022/04/09 08:14:37;;;;;;;;;;;17.20;95.70;;;;;;5014215;28;19937;-79
2022/04/09 08:17:03;;;;;;;;;;;18.20;92.70;;;;;;4996492;28;20397;-80
2022/04/09 08:19:29;;;;;;;;;;;18.70;91.00;;;;;;4992869;28;19965;-80
2022/04/09 08:21:56;;;;;;;;;;;18.60;88.30;;;;;;5014432;28;19909;-80
2022/04/09 08:24:21;;;;;;;;;;;18.70;86.60;;;;;;4996870;28;20329;-80
2022/04/09 08:26:47;;;;;;;;;;;19.70;88.00;;;;;;5014503;28;19913;-80
2022/04/09 08:29:18;;;;;;;;;;;19.20;83.70;;;;;;5013111;28;19910;-80
2022/04/09 08:31:47;;;;;;;;;;;19.40;86.90;;;;;;4996644;28;19910;-79
2022/04/09 08:34:12;;;;;;;;;;;20.60;79.10;;;;;;5015161;28;19909;-81
2022/04/09 08:36:38;;;;;;;;;;;20.60;77.50;;;;;;5014749;28;19931;-80
2022/04/09 08:39:03;;;;;;;;;;;20.10;78.50;;;;;;5014722;28;19910;-79
2022/04/09 08:41:29;;;;;;;;;;;21.20;76.50;;;;;;5014499;28;19910;-80
2022/04/09 08:43:55;;;;;;;;;;;21.30;73.40;;;;;;4997623;28;19909;-80
2022/04/09 08:46:20;;;;;;;;;;;21.60;73.20;;;;;;4997455;28;19917;-80
2022/04/09 08:48:47;;;;;;;;;;;22.60;69.90;;;;;;5014425;28;19914;-80
2022/04/09 08:51:12;;;;;;;;;;;23.50;64.50;;;;;;4997493;28;19910;-80
2022/04/09 08:53:40;;;;;;;;;;;23.60;60.90;;;;;;5014906;28;19909;-79
2022/04/09 08:56:06;;;;;;;;;;;24.50;60.80;;;;;;4997346;28;19913;-81
2022/04/09 08:58:31;;;;;;;;;;;25.10;57.20;;;;;;5014647;28;20281;-81
2022/04/09 09:00:57;;;;;;;;;;;25.30;56.80;;;;;;5014679;28;19984;-81
2022/04/09 09:03:23;;;;;;;;;;;25.50;55.40;;;;;;5014568;28;19909;-81
2022/04/09 09:05:52;;;;;;;;;;;26.00;52.80;;;;;;5014840;28;19920;-80
2022/04/09 09:08:34;;;;;;;;;;;25.30;50.70;;;;;;4996727;28;19913;-81
2022/04/09 09:11:00;;;;;;;;;;;25.10;52.90;;;;;;5014592;28;19945;-80
2022/04/09 09:13:25;;;;;;;;;;;25.40;52.50;;;;;;4996714;28;19956;-79
2022/04/09 09:15:52;;;;;;;;;;;24.20;53.50;;;;;;5014806;28;19910;-79
2022/04/09 09:18:19;;;;;;;;;;;22.70;65.80;;;;;;4973507;28;19914;-80
2022/04/09 09:20:52;;;;;;;;;;;21.50;66.30;;;;;;4996889;28;19909;-79
2022/04/09 09:23:22;;;;;;;;;;;20.50;68.00;;;;;;5014596;28;20286;-79
2022/04/09 09:25:48;;;;;;;;;;;23.00;62.10;;;;;;5012606;28;20004;-82
2022/04/09 09:28:20;;;;;;;;;;;24.20;55.40;;;;;;4995641;28;19910;-81
2022/04/09 09:30:48;;;;;;;;;;;23.80;56.20;;;;;;5012435;28;19921;-81
2022/04/09 09:33:14;;;;;;;;;;;25.10;54.30;;;;;;4995956;28;19931;-80
2022/04/09 09:35:47;;;;;;;;;;;27.90;50.60;;;;;;4995921;28;20362;-78
2022/04/09 09:38:19;;;;;;;;;;;28.60;44.40;;;;;;5013437;28;19953;-80
2022/04/09 09:40:44;;;;;;;;;;;27.00;45.40;;;;;;5013833;28;20342;-76
2022/04/09 09:43:15;;;;;;;;;;;28.20;44.20;;;;;;5013671;28;19936;-77
2022/04/09 09:45:41;;;;;;;;;;;29.00;45.10;;;;;;5013633;28;19914;-78
2022/04/09 09:48:22;;;;;;;;;;;30.70;44.50;;;;;;5014885;28;19910;-78
2022/04/09 09:50:48;;;;;;;;;;;26.40;45.10;;;;;;5017182;28;19988;-79
2022/04/09 09:53:14;;;;;;;;;;;22.80;49.90;;;;;;4999231;28;19910;-80
2022/04/09 09:55:44;;;;;;;;;;;28.70;46.40;;;;;;5017009;28;19971;-80
2022/04/09 09:58:15;;;;;;;;;;;28.90;42.80;;;;;;4999055;28;19909;-80
2022/04/09 10:00:40;;;;;;;;;;;29.80;43.10;;;;;;4999044;28;19910;-82
2022/04/09 10:03:06;;;;;;;;;;;32.80;39.50;;;;;;4998993;28;19967;-80
2022/04/09 10:05:32;;;;;;;;;;;33.70;37.80;;;;;;5016453;28;19920;-77
2022/04/09 10:07:59;;;;;;;;;;;32.00;38.30;;;;;;5016486;28;19913;-79
2022/04/09 10:10:26;;;;;;;;;;;32.00;36.50;;;;;;4998746;28;19921;-77
2022/04/09 10:12:54;;;;;;;;;;;26.50;40.30;;;;;;4998636;28;19925;-78
2022/04/09 10:15:20;;;;;;;;;;;23.60;46.90;;;;;;5016940;28;19959;-79
2022/04/09 10:17:46;;;;;;;;;;;25.50;46.30;;;;;;4998914;28;19909;-82
2022/04/09 10:20:12;;;;;;;;;;;28.90;40.00;;;;;;5016502;28;20024;-81
2022/04/09 10:22:48;;;;;;;;;;;26.40;41.70;;;;;;5016293;28;19932;-81
2022/04/09 10:25:14;;;;;;;;;;;31.10;40.40;;;;;;5016421;28;20052;-78
2022/04/09 10:27:42;;;;;;;;;;;34.00;36.80;;;;;;5016208;28;20331;-78
2022/04/09 10:30:14;;;;;;;;;;;36.00;35.30;;;;;;5016239;28;19917;-80
2022/04/09 10:32:41;;;;;;;;;;;37.70;33.40;;;;;;4998580;28;20288;-80
2022/04/09 10:35:39;;;;;;;;;;;35.50;31.60;;;;;;5016528;28;19918;-80
2022/04/09 10:38:07;;;;;;;;;;;37.50;31.80;;;;;;5008183;28;20365;-78
2022/04/09 10:40:42;;;;;;;;;;;37.90;30.90;;;;;;5015950;28;19910;-78
2022/04/09 10:43:07;;;;;;;;;;;31.40;32.90;;;;;;4998298;28;20281;-79
2022/04/09 10:45:53;;;;;;;;;;;35.10;32.50;;;;;;4998234;28;19909;-79
2022/04/09 10:48:27;;;;;;;;;;;37.90;31.70;;;;;;5015899;28;19953;-79
2022/04/09 10:50:53;;;;;;;;;;;33.80;32.90;;;;;;5015911;28;19996;-79
2022/04/09 10:53:19;;;;;;;;;;;32.60;32.00;;;;;;4998117;28;20473;-79
2022/04/09 10:56:05;;;;;;;;;;;32.60;35.70;;;;;;5014901;28;19921;-78
2022/04/09 10:58:30;;;;;;;;;;;30.80;34.10;;;;;;5014306;28;19910;-79
2022/04/09 11:00:56;;;;;;;;;;;30.10;33.90;;;;;;4997071;28;20290;-81
2022/04/09 11:03:27;;;;;;;;;;;35.30;33.30;;;;;;5015126;28;19945;-79
2022/04/09 11:06:13;;;;;;;;;;;36.90;30.60;;;;;;4997546;28;19909;-80
2022/04/09 11:08:39;;;;;;;;;;;37.90;29.80;;;;;;5014948;28;20013;-79
2022/04/09 11:11:05;;;;;;;;;;;36.30;30.50;;;;;;5015110;28;19909;-80
2022/04/09 11:13:31;;;;;;;;;;;36.50;30.60;;;;;;4997451;28;20004;-80
2022/04/09 11:15:56;;;;;;;;;;;36.90;29.90;;;;;;5015447;28;19924;-80
2022/04/09 11:18:22;;;;;;;;;;;36.30;30.20;;;;;;5015206;28;19913;-80
2022/04/09 11:20:49;;;;;;;;;;;36.00;29.60;;;;;;4997551;28;20400;-80
2022/04/09 11:23:19;;;;;;;;;;;38.20;30.40;;;;;;4997444;28;20382;-79
2022/04/09 11:25:45;;;;;;;;;;;39.20;29.70;;;;;;5015441;28;19974;-80
2022/04/09 11:28:17;;;;;;;;;;;39.40;29.30;;;;;;5015065;28;20448;-80
2022/04/09 11:30:53;;;;;;;;;;;40.50;29.00;;;;;;5015066;28;19959;-79
2022/04/09 11:33:19;;;;;;;;;;;36.00;29.20;;;;;;4997240;28;19910;-77
2022/04/09 11:35:45;;;;;;;;;;;31.00;32.50;;;;;;4997200;28;19963;-78
2022/04/09 11:38:11;;;;;;;;;;;26.60;36.10;;;;;;5014842;28;19963;-77
2022/04/09 11:40:42;;;;;;;;;;;24.40;39.10;;;;;;5014837;28;19980;-77
2022/04/09 11:43:08;;;;;;;;;;;28.60;36.60;;;;;;5015207;28;19909;-79
2022/04/09 11:45:33;;;;;;;;;;;34.00;33.70;;;;;;5014924;28;20284;-79
2022/04/09 11:48:00;;;;;;;;;;;36.90;31.30;;;;;;4996865;28;20000;-80
2022/04/09 11:50:30;;;;;;;;;;;36.60;29.40;;;;;;5014609;28;19910;-80
2022/04/09 11:52:56;;;;;;;;;;;38.10;30.00;;;;;;4996934;28;20008;-81
2022/04/09 11:55:22;;;;;;;;;;;38.80;29.50;;;;;;5014785;28;20360;-80
2022/04/09 11:57:52;;;;;;;;;;;37.10;29.20;;;;;;5014536;28;19916;-80
2022/04/09 12:00:19;;;;;;;;;;;38.30;29.50;;;;;;5014428;28;19909;-80
2022/04/09 12:02:44;;;;;;;;;;;38.60;28.50;;;;;;5014436;28;20012;-79
2022/04/09 12:05:11;;;;;;;;;;;39.50;28.60;;;;;;4996818;28;19917;-79
2022/04/09 12:07:40;;;;;;;;;;;32.80;29.60;;;;;;4996768;28;19916;-79
2022/04/09 12:10:06;;;;;;;;;;;31.90;32.30;;;;;;5014832;28;19909;-79
2022/04/09 12:12:36;;;;;;;;;;;37.60;30.00;;;;;;5013189;28;20366;-78
2022/04/09 12:15:02;;;;;;;;;;;37.40;28.20;;;;;;5014627;28;20004;-79
2022/04/09 12:17:34;;;;;;;;;;;41.30;28.70;;;;;;5014185;28;20447;-79
2022/04/09 12:20:20;;;;;;;;;;;40.80;28.30;;;;;;5014421;28;19910;-79
2022/04/09 12:22:55;;;;;;;;;;;39.70;28.40;;;;;;5014039;28;19910;-79
2022/04/09 12:25:33;;;;;;;;;;;36.00;28.40;;;;;;5014564;28;19910;-79
2022/04/09 12:27:59;;;;;;;;;;;29.60;32.10;;;;;;5014082;28;20006;-78
2022/04/09 12:30:37;;;;;;;;;;;26.20;34.90;;;;;;5014192;28;20404;-80
2022/04/09 12:33:12;;;;;;;;;;;25.40;36.90;;;;;;4996124;28;19914;-81
2022/04/09 12:35:38;;;;;;;;;;;35.70;32.30;;;;;;4996329;28;19921;-79
2022/04/09 12:38:04;;;;;;;;;;;39.70;28.60;;;;;;5014120;28;19910;-80
2022/04/09 12:40:31;;;;;;;;;;;41.50;27.60;;;;;;5013887;28;19917;-79
2022/04/09 12:42:57;;;;;;;;;;;41.30;27.20;;;;;;5014062;28;20304;-79
2022/04/09 12:45:24;;;;;;;;;;;42.30;27.40;;;;;;5014204;28;19913;-80
2022/04/09 12:47:56;;;;;;;;;;;43.30;27.00;;;;;;5013835;28;19932;-80
2022/04/09 12:50:24;;;;;;;;;;;43.90;27.40;;;;;;4996153;28;20340;-79
2022/04/09 12:52:50;;;;;;;;;;;44.30;27.10;;;;;;4996167;28;20385;-80
2022/04/09 12:55:16;;;;;;;;;;;44.40;26.90;;;;;;5013737;28;19914;-81
2022/04/09 12:57:42;;;;;;;;;;;41.80;26.00;;;;;;4996114;28;20325;-79
2022/04/09 13:00:07;;;;;;;;;;;34.00;28.50;;;;;;5013855;28;19910;-79
2022/04/09 13:02:36;;;;;;;;;;;36.50;29.00;;;;;;5013819;28;19917;-79
2022/04/09 13:05:04;;;;;;;;;;;39.40;27.60;;;;;;5013705;28;20439;-78
2022/04/09 13:07:30;;;;;;;;;;;41.80;27.00;;;;;;5013623;28;19913;-79
2022/04/09 13:09:55;;;;;;;;;;;42.30;27.10;;;;;;5013531;28;20435;-80
2022/04/09 13:12:21;;;;;;;;;;;43.30;26.80;;;;;;5013573;28;19909;-80
2022/04/09 13:14:46;;;;;;;;;;;45.10;26.30;;;;;;4995691;28;19968;-80
2022/04/09 13:17:12;;;;;;;;;;;46.00;26.30;;;;;;4996009;28;19960;-79
2022/04/09 13:19:38;;;;;;;;;;;46.10;26.00;;;;;;5013736;28;20377;-79
2022/04/09 13:22:03;;;;;;;;;;;44.60;25.30;;;;;;4995868;28;19909;-80
2022/04/09 13:24:29;;;;;;;;;;;46.00;26.00;;;;;;4999768;28;20301;-79
2022/04/09 13:26:55;;;;;;;;;;;44.20;26.50;;;;;;5017757;28;19909;-79
2022/04/09 13:29:20;;;;;;;;;;;37.40;26.30;;;;;;5017503;28;20416;-78
2022/04/09 13:31:46;;;;;;;;;;;30.70;30.00;;;;;;5017498;28;19992;-78
2022/04/09 13:34:14;;;;;;;;;;;27.80;31.50;;;;;;5017259;28;19909;-78
2022/04/09 13:36:40;;;;;;;;;;;35.00;29.00;;;;;;5016996;28;19932;-79
2022/04/09 13:39:06;;;;;;;;;;;34.80;29.20;;;;;;4999373;28;20377;-79
2022/04/09 13:41:32;;;;;;;;;;;40.40;27.80;;;;;;4999474;28;19910;-79
2022/04/09 13:43:58;;;;;;;;;;;43.80;26.80;;;;;;5017156;28;19910;-79
2022/04/09 13:46:23;;;;;;;;;;;43.20;26.50;;;;;;5017016;28;19916;-78
2022/04/09 13:48:49;;;;;;;;;;;36.50;27.00;;;;;;5016883;28;19941;-78
2022/04/09 13:51:15;;;;;;;;;;;33.80;27.90;;;;;;5017107;28;19964;-79
2022/04/09 13:53:41;;;;;;;;;;;37.50;27.80;;;;;;4999156;28;19960;-79
2022/04/09 13:56:06;;;;;;;;;;;40.50;26.80;;;;;;5016699;28;20024;-80
2022/04/09 13:58:32;;;;;;;;;;;41.60;26.10;;;;;;4999132;28;19948;-79
2022/04/09 14:00:58;;;;;;;;;;;42.50;26.10;;;;;;4999115;28;20316;-79
2022/04/09 14:03:23;;;;;;;;;;;40.40;25.90;;;;;;5016638;28;20419;-79
2022/04/09 14:05:49;;;;;;;;;;;40.80;26.40;;;;;;5016615;28;19910;-79
2022/04/09 14:08:15;;;;;;;;;;;42.00;26.30;;;;;;4998827;28;20292;-79
2022/04/09 14:10:41;;;;;;;;;;;41.60;26.00;;;;;;5016654;28;19925;-79
2022/04/09 14:13:07;;;;;;;;;;;40.30;26.00;;;;;;5014988;28;19932;-79
2022/04/09 14:15:33;;;;;;;;;;;40.70;26.50;;;;;;5016334;28;19913;-79
2022/04/09 14:17:58;;;;;;;;;;;41.30;26.80;;;;;;5016316;28;19917;-79
2022/04/09 14:20:24;;;;;;;;;;;40.40;26.50;;;;;;5016444;28;20270;-80